sensor_id;sensor_type;location;lat;lon;timestamp;temperature;humidity
5278;DHT22;2662;51.194;6.614;2024-01-16T00:00:17;2.70;99.90
5278;DHT22;2662;51.194;6.614;2024-01-16T00:02:44;2.70;99.90
5278;DHT22;2662;51.194;6.614;2024-01-16T00:05:20;2.80;99.90
5278;DHT22;2662;51.194;6.614;2024-01-16T00:07:49;2.70;99.90
5278;DHT22;2662;51.194;6.614;2024-01-16T00:10:18;2.70;99.90
5278;DHT22;2662;51.194;6.614;2024-01-16T00:12:45;2.70;99.90
5278;DHT22;2662;51.194;6.614;2024-01-16T00:15:12;2.70;99.90
5278;DHT22;2662;51.194;6.614;2024-01-16T00:17:54;2.70;99.90
5278;DHT22;2662;51.194;6.614;2024-01-16T00:20:25;2.80;99.90
5278;DHT22;2662;51.194;6.614;2024-01-16T00:22:52;2.80;99.90
5278;DHT22;2662;51.194;6.614;2024-01-16T00:25:19;2.90;99.90
5278;DHT22;2662;51.194;6.614;2024-01-16T00:27:48;2.90;99.90
5278;DHT22;2662;51.194;6.614;2024-01-16T00:30:14;2.90;99.90
5278;DHT22;2662;51.194;6.614;2024-01-16T00:32:41;2.90;99.90
5278;DHT22;2662;51.194;6.614;2024-01-16T00:35:11;2.80;99.90
5278;DHT22;2662;51.194;6.614;2024-01-16T00:37:39;2.80;99.90
5278;DHT22;2662;51.194;6.614;2024-01-16T00:40:07;2.80;99.90
5278;DHT22;2662;51.194;6.614;2024-01-16T00:42:37;2.80;99.90
5278;DHT22;2662;51.194;6.614;2024-01-16T00:45:04;2.80;99.90
5278;DHT22;2662;51.194;6.614;2024-01-16T00:47:40;2.80;99.90
5278;DHT22;2662;51.194;6.614;2024-01-16T00:50:17;2.80;99.90
5278;DHT22;2662;51.194;6.614;2024-01-16T00:52:46;2.70;99.90
5278;DHT22;2662;51.194;6.614;2024-01-16T00:55:12;2.70;99.90
5278;DHT22;2662;51.194;6.614;2024-01-16T00:57:39;2.60;99.90
5278;DHT22;2662;51.194;6.614;2024-01-16T01:00:14;2.60;99.90
5278;DHT22;2662;51.194;6.614;2024-01-16T01:02:40;2.60;99.90
5278;DHT22;2662;51.194;6.614;2024-01-16T01:05:08;2.60;99.90
5278;DHT22;2662;51.194;6.614;2024-01-16T01:07:43;2.50;99.90
5278;DHT22;2662;51.194;6.614;2024-01-16T01:10:11;2.50;99.90
5278;DHT22;2662;51.194;6.614;2024-01-16T01:12:40;2.50;99.90
5278;DHT22;2662;51.194;6.614;2024-01-16T01:15:08;2.60;99.90
5278;DHT22;2662;51.194;6.614;2024-01-16T01:17:36;2.60;99.90
5278;DHT22;2662;51.194;6.614;2024-01-16T01:20:03;2.60;99.90
5278;DHT22;2662;51.194;6.614;2024-01-16T01:22:34;2.60;99.90
5278;DHT22;2662;51.194;6.614;2024-01-16T01:25:05;2.60;99.90
5278;DHT22;2662;51.194;6.614;2024-01-16T01:27:32;2.60;99.90
5278;DHT22;2662;51.194;6.614;2024-01-16T01:29:59;2.60;99.90
5278;DHT22;2662;51.194;6.614;2024-01-16T01:32:26;2.60;99.90
5278;DHT22;2662;51.194;6.614;2024-01-16T01:34:53;2.60;99.90
5278;DHT22;2662;51.194;6.614;2024-01-16T01:37:20;2.60;99.90
5278;DHT22;2662;51.194;6.614;2024-01-16T01:39:47;2.60;99.90
5278;DHT22;2662;51.194;6.614;2024-01-16T01:42:17;2.60;99.90
5278;DHT22;2662;51.194;6.614;2024-01-16T01:44:57;2.60;99.90
5278;DHT22;2662;51.194;6.614;2024-01-16T01:47:24;2.60;99.90
5278;DHT22;2662;51.194;6.614;2024-01-16T01:49:54;2.60;99.90
5278;DHT22;2662;51.194;6.614;2024-01-16T01:52:30;2.70;99.90
5278;DHT22;2662;51.194;6.614;2024-01-16T01:54:58;2.70;99.90
5278;DHT22;2662;51.194;6.614;2024-01-16T01:57:27;2.70;99.90
5278;DHT22;2662;51.194;6.614;2024-01-16T01:59:55;2.70;99.90
5278;DHT22;2662;51.194;6.614;2024-01-16T02:02:25;2.70;99.90
5278;DHT22;2662;51.194;6.614;2024-01-16T02:04:56;2.70;99.90
5278;DHT22;2662;51.194;6.614;2024-01-16T02:07:23;2.70;99.90
5278;DHT22;2662;51.194;6.614;2024-01-16T02:09:51;2.60;99.90
5278;DHT22;2662;51.194;6.614;2024-01-16T02:12:18;2.60;99.90
5278;DHT22;2662;51.194;6.614;2024-01-16T02:14:45;2.70;99.90
5278;DHT22;2662;51.194;6.614;2024-01-16T02:17:13;2.70;99.90
5278;DHT22;2662;51.194;6.614;2024-01-16T02:19:40;2.70;99.90
5278;DHT22;2662;51.194;6.614;2024-01-16T02:22:09;2.70;99.90
5278;DHT22;2662;51.194;6.614;2024-01-16T02:24:44;2.60;99.90
5278;DHT22;2662;51.194;6.614;2024-01-16T02:27:11;2.60;99.90
5278;DHT22;2662;51.194;6.614;2024-01-16T02:29:41;2.60;99.90
5278;DHT22;2662;51.194;6.614;2024-01-16T02:32:12;2.60;99.90
5278;DHT22;2662;51.194;6.614;2024-01-16T02:34:41;2.60;99.90
5278;DHT22;2662;51.194;6.614;2024-01-16T02:37:09;2.60;99.90
5278;DHT22;2662;51.194;6.614;2024-01-16T02:39:36;2.60;99.90
5278;DHT22;2662;51.194;6.614;2024-01-16T02:42:19;2.60;99.90
5278;DHT22;2662;51.194;6.614;2024-01-16T02:44:45;2.60;99.90
5278;DHT22;2662;51.194;6.614;2024-01-16T02:47:15;2.60;99.90
5278;DHT22;2662;51.194;6.614;2024-01-16T02:49:44;2.60;99.90
5278;DHT22;2662;51.194;6.614;2024-01-16T02:52:14;2.60;99.90
5278;DHT22;2662;51.194;6.614;2024-01-16T02:54:41;2.60;99.90
5278;DHT22;2662;51.194;6.614;2024-01-16T02:57:09;2.60;99.90
5278;DHT22;2662;51.194;6.614;2024-01-16T02:59:39;2.60;99.90
5278;DHT22;2662;51.194;6.614;2024-01-16T03:02:06;2.60;99.90
5278;DHT22;2662;51.194;6.614;2024-01-16T03:04:41;2.60;99.90
5278;DHT22;2662;51.194;6.614;2024-01-16T03:07:08;2.60;99.90
5278;DHT22;2662;51.194;6.614;2024-01-16T03:09:47;2.60;99.90
5278;DHT22;2662;51.194;6.614;2024-01-16T03:12:15;2.60;99.90
5278;DHT22;2662;51.194;6.614;2024-01-16T03:14:44;2.60;99.90
5278;DHT22;2662;51.194;6.614;2024-01-16T03:17:11;2.60;99.90
5278;DHT22;2662;51.194;6.614;2024-01-16T03:19:39;2.60;99.90
5278;DHT22;2662;51.194;6.614;2024-01-16T03:22:07;2.60;99.90
5278;DHT22;2662;51.194;6.614;2024-01-16T03:24:41;2.60;99.90
5278;DHT22;2662;51.194;6.614;2024-01-16T03:27:08;2.60;99.90
5278;DHT22;2662;51.194;6.614;2024-01-16T03:29:35;2.60;99.90
5278;DHT22;2662;51.194;6.614;2024-01-16T03:32:11;2.60;99.90
5278;DHT22;2662;51.194;6.614;2024-01-16T03:34:37;2.60;99.90
5278;DHT22;2662;51.194;6.614;2024-01-16T03:37:06;2.50;99.90
5278;DHT22;2662;51.194;6.614;2024-01-16T03:39:32;2.40;99.90
5278;DHT22;2662;51.194;6.614;2024-01-16T03:41:59;2.40;99.90
5278;DHT22;2662;51.194;6.614;2024-01-16T03:44:32;2.30;99.90
5278;DHT22;2662;51.194;6.614;2024-01-16T03:46:59;2.20;99.90
5278;DHT22;2662;51.194;6.614;2024-01-16T03:49:30;2.10;99.90
5278;DHT22;2662;51.194;6.614;2024-01-16T03:51:59;2.10;99.90
5278;DHT22;2662;51.194;6.614;2024-01-16T03:54:36;2.00;99.90
5278;DHT22;2662;51.194;6.614;2024-01-16T03:57:03;2.00;99.90
5278;DHT22;2662;51.194;6.614;2024-01-16T03:59:33;2.00;99.90
5278;DHT22;2662;51.194;6.614;2024-01-16T04:02:03;1.90;99.90
5278;DHT22;2662;51.194;6.614;2024-01-16T04:04:32;1.80;99.90
5278;DHT22;2662;51.194;6.614;2024-01-16T04:07:00;1.80;99.90
5278;DHT22;2662;51.194;6.614;2024-01-16T04:09:31;1.80;99.90
5278;DHT22;2662;51.194;6.614;2024-01-16T04:12:08;1.80;99.90
5278;DHT22;2662;51.194;6.614;2024-01-16T04:14:35;1.90;99.90
5278;DHT22;2662;51.194;6.614;2024-01-16T04:17:09;1.90;99.90
5278;DHT22;2662;51.194;6.614;2024-01-16T04:19:53;2.00;99.90
5278;DHT22;2662;51.194;6.614;2024-01-16T04:22:20;2.10;99.90
5278;DHT22;2662;51.194;6.614;2024-01-16T04:24:48;2.20;99.90
5278;DHT22;2662;51.194;6.614;2024-01-16T04:27:15;2.20;99.90
5278;DHT22;2662;51.194;6.614;2024-01-16T04:30:03;2.30;99.90
5278;DHT22;2662;51.194;6.614;2024-01-16T04:32:30;2.30;99.90
5278;DHT22;2662;51.194;6.614;2024-01-16T04:34:59;2.30;99.90
5278;DHT22;2662;51.194;6.614;2024-01-16T04:37:29;2.30;99.90
5278;DHT22;2662;51.194;6.614;2024-01-16T04:40:14;2.40;99.90
5278;DHT22;2662;51.194;6.614;2024-01-16T04:42:49;2.40;99.90
5278;DHT22;2662;51.194;6.614;2024-01-16T04:45:17;2.40;99.90
5278;DHT22;2662;51.194;6.614;2024-01-16T04:48:05;2.40;99.90
5278;DHT22;2662;51.194;6.614;2024-01-16T04:50:47;2.40;99.90
5278;DHT22;2662;51.194;6.614;2024-01-16T04:53:22;2.40;99.90
5278;DHT22;2662;51.194;6.614;2024-01-16T04:55:49;2.40;99.90
5278;DHT22;2662;51.194;6.614;2024-01-16T04:58:16;2.40;99.90
5278;DHT22;2662;51.194;6.614;2024-01-16T05:00:55;2.50;99.90
5278;DHT22;2662;51.194;6.614;2024-01-16T05:03:23;2.40;99.90
5278;DHT22;2662;51.194;6.614;2024-01-16T05:05:51;2.40;99.90
5278;DHT22;2662;51.194;6.614;2024-01-16T05:08:18;2.40;99.90
5278;DHT22;2662;51.194;6.614;2024-01-16T05:10:51;2.50;99.90
5278;DHT22;2662;51.194;6.614;2024-01-16T05:13:19;2.50;99.90
5278;DHT22;2662;51.194;6.614;2024-01-16T05:16:03;2.50;99.90
5278;DHT22;2662;51.194;6.614;2024-01-16T05:18:30;2.50;99.90
5278;DHT22;2662;51.194;6.614;2024-01-16T05:20:59;2.50;99.90
5278;DHT22;2662;51.194;6.614;2024-01-16T05:23:27;2.50;99.90
5278;DHT22;2662;51.194;6.614;2024-01-16T05:25:54;2.50;99.90
5278;DHT22;2662;51.194;6.614;2024-01-16T05:29:17;2.40;99.90
5278;DHT22;2662;51.194;6.614;2024-01-16T05:31:50;2.40;99.90
5278;DHT22;2662;51.194;6.614;2024-01-16T05:34:26;2.30;99.90
5278;DHT22;2662;51.194;6.614;2024-01-16T05:37:03;2.30;99.90
5278;DHT22;2662;51.194;6.614;2024-01-16T05:39:30;2.20;99.90
5278;DHT22;2662;51.194;6.614;2024-01-16T05:41:57;2.20;99.90
5278;DHT22;2662;51.194;6.614;2024-01-16T05:44:28;2.20;99.90
5278;DHT22;2662;51.194;6.614;2024-01-16T05:46:54;2.10;99.90
5278;DHT22;2662;51.194;6.614;2024-01-16T05:49:22;2.00;99.90
5278;DHT22;2662;51.194;6.614;2024-01-16T05:51:50;2.00;99.90
5278;DHT22;2662;51.194;6.614;2024-01-16T05:54:20;1.90;99.90
5278;DHT22;2662;51.194;6.614;2024-01-16T05:56:46;1.90;99.90
5278;DHT22;2662;51.194;6.614;2024-01-16T05:59:13;1.80;99.90
5278;DHT22;2662;51.194;6.614;2024-01-16T06:01:40;1.80;99.90
5278;DHT22;2662;51.194;6.614;2024-01-16T06:04:08;1.70;99.90
5278;DHT22;2662;51.194;6.614;2024-01-16T06:06:34;1.70;99.90
5278;DHT22;2662;51.194;6.614;2024-01-16T06:09:10;1.70;99.90
5278;DHT22;2662;51.194;6.614;2024-01-16T06:11:48;1.70;99.90
5278;DHT22;2662;51.194;6.614;2024-01-16T06:14:16;1.70;99.90
5278;DHT22;2662;51.194;6.614;2024-01-16T06:16:47;1.60;99.90
5278;DHT22;2662;51.194;6.614;2024-01-16T06:19:14;1.60;99.90
5278;DHT22;2662;51.194;6.614;2024-01-16T06:21:43;1.60;99.90
5278;DHT22;2662;51.194;6.614;2024-01-16T06:24:10;1.60;99.90
5278;DHT22;2662;51.194;6.614;2024-01-16T06:26:45;1.50;99.90
5278;DHT22;2662;51.194;6.614;2024-01-16T06:29:15;1.50;99.90
5278;DHT22;2662;51.194;6.614;2024-01-16T06:31:52;1.50;99.90
5278;DHT22;2662;51.194;6.614;2024-01-16T06:34:28;1.40;99.90
5278;DHT22;2662;51.194;6.614;2024-01-16T06:36:59;1.30;99.90
5278;DHT22;2662;51.194;6.614;2024-01-16T06:39:26;1.30;99.90
5278;DHT22;2662;51.194;6.614;2024-01-16T06:41:53;1.20;99.90
5278;DHT22;2662;51.194;6.614;2024-01-16T06:44:22;1.20;99.90
5278;DHT22;2662;51.194;6.614;2024-01-16T06:46:49;1.20;99.90
5278;DHT22;2662;51.194;6.614;2024-01-16T06:49:17;1.20;99.90
5278;DHT22;2662;51.194;6.614;2024-01-16T06:51:46;1.10;99.90
5278;DHT22;2662;51.194;6.614;2024-01-16T06:54:13;1.10;99.90
5278;DHT22;2662;51.194;6.614;2024-01-16T06:56:40;1.20;99.90
5278;DHT22;2662;51.194;6.614;2024-01-16T06:59:10;1.20;99.90
5278;DHT22;2662;51.194;6.614;2024-01-16T07:01:41;1.30;99.90
5278;DHT22;2662;51.194;6.614;2024-01-16T07:04:12;1.40;99.90
5278;DHT22;2662;51.194;6.614;2024-01-16T07:06:42;1.40;99.90
5278;DHT22;2662;51.194;6.614;2024-01-16T07:09:19;1.50;99.90
5278;DHT22;2662;51.194;6.614;2024-01-16T07:11:46;1.60;99.90
5278;DHT22;2662;51.194;6.614;2024-01-16T07:14:20;1.60;99.90
5278;DHT22;2662;51.194;6.614;2024-01-16T07:16:58;1.60;99.90
5278;DHT22;2662;51.194;6.614;2024-01-16T07:19:26;1.70;99.90
5278;DHT22;2662;51.194;6.614;2024-01-16T07:22:00;1.70;99.90
5278;DHT22;2662;51.194;6.614;2024-01-16T07:24:31;1.70;99.90
5278;DHT22;2662;51.194;6.614;2024-01-16T07:27:02;1.70;99.90
5278;DHT22;2662;51.194;6.614;2024-01-16T07:29:45;1.80;99.90
5278;DHT22;2662;51.194;6.614;2024-01-16T07:32:17;1.70;99.90
5278;DHT22;2662;51.194;6.614;2024-01-16T07:35:01;1.70;99.90
5278;DHT22;2662;51.194;6.614;2024-01-16T07:37:30;1.70;99.90
5278;DHT22;2662;51.194;6.614;2024-01-16T07:39:58;1.80;99.90
5278;DHT22;2662;51.194;6.614;2024-01-16T07:42:25;1.80;99.90
5278;DHT22;2662;51.194;6.614;2024-01-16T07:45:03;1.80;99.90
5278;DHT22;2662;51.194;6.614;2024-01-16T07:47:32;1.80;99.90
5278;DHT22;2662;51.194;6.614;2024-01-16T07:50:00;1.80;99.90
5278;DHT22;2662;51.194;6.614;2024-01-16T07:52:28;1.70;99.90
5278;DHT22;2662;51.194;6.614;2024-01-16T07:54:55;1.80;99.90
5278;DHT22;2662;51.194;6.614;2024-01-16T07:57:22;1.80;99.90
5278;DHT22;2662;51.194;6.614;2024-01-16T07:59:49;1.80;99.90
5278;DHT22;2662;51.194;6.614;2024-01-16T08:02:17;1.80;99.90
5278;DHT22;2662;51.194;6.614;2024-01-16T08:04:45;1.80;99.90
5278;DHT22;2662;51.194;6.614;2024-01-16T08:07:15;1.80;99.90
5278;DHT22;2662;51.194;6.614;2024-01-16T08:09:45;1.90;99.90
5278;DHT22;2662;51.194;6.614;2024-01-16T08:12:18;1.90;99.90
5278;DHT22;2662;51.194;6.614;2024-01-16T08:14:45;2.00;99.90
5278;DHT22;2662;51.194;6.614;2024-01-16T08:17:14;2.00;99.90
5278;DHT22;2662;51.194;6.614;2024-01-16T08:19:45;2.00;99.90
5278;DHT22;2662;51.194;6.614;2024-01-16T08:22:12;2.00;99.90
5278;DHT22;2662;51.194;6.614;2024-01-16T08:24:40;2.00;99.90
5278;DHT22;2662;51.194;6.614;2024-01-16T08:27:10;2.10;99.90
5278;DHT22;2662;51.194;6.614;2024-01-16T08:29:38;2.10;99.90
5278;DHT22;2662;51.194;6.614;2024-01-16T08:32:08;2.20;99.90
5278;DHT22;2662;51.194;6.614;2024-01-16T08:34:38;2.30;99.90
5278;DHT22;2662;51.194;6.614;2024-01-16T08:37:08;2.30;99.90
5278;DHT22;2662;51.194;6.614;2024-01-16T08:39:37;2.40;99.90
5278;DHT22;2662;51.194;6.614;2024-01-16T08:42:04;2.50;99.90
5278;DHT22;2662;51.194;6.614;2024-01-16T08:44:50;2.60;99.90
5278;DHT22;2662;51.194;6.614;2024-01-16T08:47:23;2.90;99.90
5278;DHT22;2662;51.194;6.614;2024-01-16T08:49:50;3.00;99.90
5278;DHT22;2662;51.194;6.614;2024-01-16T08:52:18;3.00;99.90
5278;DHT22;2662;51.194;6.614;2024-01-16T08:54:44;3.10;99.90
5278;DHT22;2662;51.194;6.614;2024-01-16T08:57:11;3.10;99.90
5278;DHT22;2662;51.194;6.614;2024-01-16T08:59:39;3.30;99.90
5278;DHT22;2662;51.194;6.614;2024-01-16T09:02:06;3.40;99.90
5278;DHT22;2662;51.194;6.614;2024-01-16T09:04:39;3.40;99.90
5278;DHT22;2662;51.194;6.614;2024-01-16T09:07:06;3.40;99.90
5278;DHT22;2662;51.194;6.614;2024-01-16T09:09:35;3.30;99.90
5278;DHT22;2662;51.194;6.614;2024-01-16T09:12:03;3.20;99.90
5278;DHT22;2662;51.194;6.614;2024-01-16T09:14:30;3.00;99.90
5278;DHT22;2662;51.194;6.614;2024-01-16T09:17:01;2.90;99.90
5278;DHT22;2662;51.194;6.614;2024-01-16T09:19:34;2.80;99.90
5278;DHT22;2662;51.194;6.614;2024-01-16T09:22:03;2.80;99.90
5278;DHT22;2662;51.194;6.614;2024-01-16T09:24:31;2.80;99.90
5278;DHT22;2662;51.194;6.614;2024-01-16T09:27:02;2.80;99.90
5278;DHT22;2662;51.194;6.614;2024-01-16T09:29:33;2.80;99.90
5278;DHT22;2662;51.194;6.614;2024-01-16T09:32:01;2.70;99.90
5278;DHT22;2662;51.194;6.614;2024-01-16T09:34:30;2.70;99.90
5278;DHT22;2662;51.194;6.614;2024-01-16T09:36:57;2.70;99.90
5278;DHT22;2662;51.194;6.614;2024-01-16T09:39:28;2.60;99.90
5278;DHT22;2662;51.194;6.614;2024-01-16T09:42:00;2.50;99.90
5278;DHT22;2662;51.194;6.614;2024-01-16T09:44:27;2.50;99.90
5278;DHT22;2662;51.194;6.614;2024-01-16T09:46:55;2.40;99.90
5278;DHT22;2662;51.194;6.614;2024-01-16T09:49:22;2.30;99.90
5278;DHT22;2662;51.194;6.614;2024-01-16T09:51:51;2.30;99.90
5278;DHT22;2662;51.194;6.614;2024-01-16T09:54:19;2.30;99.90
5278;DHT22;2662;51.194;6.614;2024-01-16T09:56:51;2.40;99.90
5278;DHT22;2662;51.194;6.614;2024-01-16T09:59:21;2.40;99.90
5278;DHT22;2662;51.194;6.614;2024-01-16T10:01:52;2.50;99.90
5278;DHT22;2662;51.194;6.614;2024-01-16T10:04:20;2.40;99.90
5278;DHT22;2662;51.194;6.614;2024-01-16T10:06:48;2.50;99.90
5278;DHT22;2662;51.194;6.614;2024-01-16T10:09:16;2.50;99.90
5278;DHT22;2662;51.194;6.614;2024-01-16T10:11:45;2.60;99.90
5278;DHT22;2662;51.194;6.614;2024-01-16T10:14:20;2.70;99.90
5278;DHT22;2662;51.194;6.614;2024-01-16T10:16:56;2.70;99.90
5278;DHT22;2662;51.194;6.614;2024-01-16T10:19:27;2.70;99.90
5278;DHT22;2662;51.194;6.614;2024-01-16T10:22:02;2.70;99.90
5278;DHT22;2662;51.194;6.614;2024-01-16T10:24:29;2.70;99.90
5278;DHT22;2662;51.194;6.614;2024-01-16T10:26:58;2.60;99.90
5278;DHT22;2662;51.194;6.614;2024-01-16T10:29:36;2.70;99.90
5278;DHT22;2662;51.194;6.614;2024-01-16T10:32:08;2.80;99.90
5278;DHT22;2662;51.194;6.614;2024-01-16T10:34:35;2.90;99.90
5278;DHT22;2662;51.194;6.614;2024-01-16T10:37:02;2.90;99.90
5278;DHT22;2662;51.194;6.614;2024-01-16T10:39:30;2.90;99.90
5278;DHT22;2662;51.194;6.614;2024-01-16T10:41:57;2.90;99.90
5278;DHT22;2662;51.194;6.614;2024-01-16T10:44:26;3.00;99.90
5278;DHT22;2662;51.194;6.614;2024-01-16T10:47:11;3.20;99.90
5278;DHT22;2662;51.194;6.614;2024-01-16T10:49:38;3.20;99.90
5278;DHT22;2662;51.194;6.614;2024-01-16T10:52:10;3.30;99.90
5278;DHT22;2662;51.194;6.614;2024-01-16T10:54:41;3.30;99.90
5278;DHT22;2662;51.194;6.614;2024-01-16T10:57:11;3.20;99.90
5278;DHT22;2662;51.194;6.614;2024-01-16T10:59:50;3.10;99.90
5278;DHT22;2662;51.194;6.614;2024-01-16T11:02:41;3.10;99.90
5278;DHT22;2662;51.194;6.614;2024-01-16T11:05:09;3.10;99.90
5278;DHT22;2662;51.194;6.614;2024-01-16T11:07:46;3.10;99.90
5278;DHT22;2662;51.194;6.614;2024-01-16T11:10:15;3.10;99.90
5278;DHT22;2662;51.194;6.614;2024-01-16T11:12:45;3.10;99.90
5278;DHT22;2662;51.194;6.614;2024-01-16T11:15:13;3.10;99.90
5278;DHT22;2662;51.194;6.614;2024-01-16T11:17:57;3.10;99.90
5278;DHT22;2662;51.194;6.614;2024-01-16T11:20:24;3.20;99.90
5278;DHT22;2662;51.194;6.614;2024-01-16T11:22:52;3.20;99.90
5278;DHT22;2662;51.194;6.614;2024-01-16T11:25:31;3.30;99.90
5278;DHT22;2662;51.194;6.614;2024-01-16T11:28:09;3.30;99.90
5278;DHT22;2662;51.194;6.614;2024-01-16T11:30:39;3.40;99.90
5278;DHT22;2662;51.194;6.614;2024-01-16T11:33:44;3.50;99.90
5278;DHT22;2662;51.194;6.614;2024-01-16T11:39:25;3.30;99.90
5278;DHT22;2662;51.194;6.614;2024-01-16T11:41:55;3.10;99.90
5278;DHT22;2662;51.194;6.614;2024-01-16T11:44:42;3.00;99.90
5278;DHT22;2662;51.194;6.614;2024-01-16T11:47:17;2.90;99.90
5278;DHT22;2662;51.194;6.614;2024-01-16T11:49:50;2.90;99.90
5278;DHT22;2662;51.194;6.614;2024-01-16T11:52:39;2.80;99.90
5278;DHT22;2662;51.194;6.614;2024-01-16T11:55:27;2.80;99.90
5278;DHT22;2662;51.194;6.614;2024-01-16T11:58:07;2.80;99.90
5278;DHT22;2662;51.194;6.614;2024-01-16T12:00:45;2.80;99.90
5278;DHT22;2662;51.194;6.614;2024-01-16T12:03:18;3.00;99.90
5278;DHT22;2662;51.194;6.614;2024-01-16T12:06:04;3.10;99.90
5278;DHT22;2662;51.194;6.614;2024-01-16T12:08:34;3.20;99.90
5278;DHT22;2662;51.194;6.614;2024-01-16T12:11:09;3.30;99.90
5278;DHT22;2662;51.194;6.614;2024-01-16T12:13:36;3.40;99.90
5278;DHT22;2662;51.194;6.614;2024-01-16T12:16:07;3.40;99.90
5278;DHT22;2662;51.194;6.614;2024-01-16T12:18:36;3.40;99.90
5278;DHT22;2662;51.194;6.614;2024-01-16T12:21:11;3.40;99.90
5278;DHT22;2662;51.194;6.614;2024-01-16T12:23:38;3.40;99.90
5278;DHT22;2662;51.194;6.614;2024-01-16T12:26:05;3.40;99.90
5278;DHT22;2662;51.194;6.614;2024-01-16T12:28:32;3.40;99.90
5278;DHT22;2662;51.194;6.614;2024-01-16T12:31:00;3.40;99.90
5278;DHT22;2662;51.194;6.614;2024-01-16T12:33:28;3.30;99.90
5278;DHT22;2662;51.194;6.614;2024-01-16T12:36:01;3.30;99.90
5278;DHT22;2662;51.194;6.614;2024-01-16T12:38:32;3.20;99.90
5278;DHT22;2662;51.194;6.614;2024-01-16T12:41:01;3.30;99.90
5278;DHT22;2662;51.194;6.614;2024-01-16T12:43:28;3.30;99.90
5278;DHT22;2662;51.194;6.614;2024-01-16T12:45:56;3.30;99.90
5278;DHT22;2662;51.194;6.614;2024-01-16T12:48:26;3.40;99.90
5278;DHT22;2662;51.194;6.614;2024-01-16T12:51:07;3.40;99.90
5278;DHT22;2662;51.194;6.614;2024-01-16T12:53:36;3.50;99.90
5278;DHT22;2662;51.194;6.614;2024-01-16T12:56:07;3.50;99.90
5278;DHT22;2662;51.194;6.614;2024-01-16T12:58:37;3.60;99.90
5278;DHT22;2662;51.194;6.614;2024-01-16T13:01:24;3.70;99.90
5278;DHT22;2662;51.194;6.614;2024-01-16T13:03:54;3.70;99.90
5278;DHT22;2662;51.194;6.614;2024-01-16T13:06:22;3.70;99.90
5278;DHT22;2662;51.194;6.614;2024-01-16T13:09:07;3.80;99.90
5278;DHT22;2662;51.194;6.614;2024-01-16T13:11:54;3.70;99.90
5278;DHT22;2662;51.194;6.614;2024-01-16T13:14:26;3.60;99.90
5278;DHT22;2662;51.194;6.614;2024-01-16T13:16:53;3.60;99.90
5278;DHT22;2662;51.194;6.614;2024-01-16T13:19:22;3.60;99.90
5278;DHT22;2662;51.194;6.614;2024-01-16T13:21:51;3.50;99.90
5278;DHT22;2662;51.194;6.614;2024-01-16T13:24:19;3.50;99.90
5278;DHT22;2662;51.194;6.614;2024-01-16T13:26:49;3.60;99.90
5278;DHT22;2662;51.194;6.614;2024-01-16T13:29:16;3.60;99.90
5278;DHT22;2662;51.194;6.614;2024-01-16T13:31:51;3.70;99.90
5278;DHT22;2662;51.194;6.614;2024-01-16T13:34:21;3.70;99.90
5278;DHT22;2662;51.194;6.614;2024-01-16T13:36:53;3.70;99.90
5278;DHT22;2662;51.194;6.614;2024-01-16T13:39:27;3.60;99.90
5278;DHT22;2662;51.194;6.614;2024-01-16T13:42:01;3.60;99.90
5278;DHT22;2662;51.194;6.614;2024-01-16T13:44:32;3.60;99.90
5278;DHT22;2662;51.194;6.614;2024-01-16T13:46:59;3.60;99.90
5278;DHT22;2662;51.194;6.614;2024-01-16T13:49:29;3.60;99.90
5278;DHT22;2662;51.194;6.614;2024-01-16T13:51:56;3.70;99.90
5278;DHT22;2662;51.194;6.614;2024-01-16T13:54:29;3.70;99.90
5278;DHT22;2662;51.194;6.614;2024-01-16T13:57:02;3.70;99.90
5278;DHT22;2662;51.194;6.614;2024-01-16T13:59:29;3.60;99.90
5278;DHT22;2662;51.194;6.614;2024-01-16T14:01:57;3.60;99.90
5278;DHT22;2662;51.194;6.614;2024-01-16T14:04:25;3.60;99.90
5278;DHT22;2662;51.194;6.614;2024-01-16T14:06:52;3.70;99.90
5278;DHT22;2662;51.194;6.614;2024-01-16T14:09:19;3.70;99.90
5278;DHT22;2662;51.194;6.614;2024-01-16T14:11:50;3.70;99.90
5278;DHT22;2662;51.194;6.614;2024-01-16T14:14:17;3.70;99.90
5278;DHT22;2662;51.194;6.614;2024-01-16T14:16:44;3.80;99.90
5278;DHT22;2662;51.194;6.614;2024-01-16T14:19:15;3.70;99.90
5278;DHT22;2662;51.194;6.614;2024-01-16T14:21:41;3.80;99.90
5278;DHT22;2662;51.194;6.614;2024-01-16T14:24:12;3.80;99.90
5278;DHT22;2662;51.194;6.614;2024-01-16T14:26:44;3.90;99.90
5278;DHT22;2662;51.194;6.614;2024-01-16T14:29:20;3.80;99.90
5278;DHT22;2662;51.194;6.614;2024-01-16T14:31:47;3.70;99.90
5278;DHT22;2662;51.194;6.614;2024-01-16T14:34:16;3.70;99.90
5278;DHT22;2662;51.194;6.614;2024-01-16T14:36:43;3.70;99.90
5278;DHT22;2662;51.194;6.614;2024-01-16T14:39:10;3.60;99.90
5278;DHT22;2662;51.194;6.614;2024-01-16T14:41:40;3.50;99.90
5278;DHT22;2662;51.194;6.614;2024-01-16T14:44:09;3.50;99.90
5278;DHT22;2662;51.194;6.614;2024-01-16T14:46:39;3.40;99.90
5278;DHT22;2662;51.194;6.614;2024-01-16T14:49:08;3.40;99.90
5278;DHT22;2662;51.194;6.614;2024-01-16T14:51:37;3.40;99.90
5278;DHT22;2662;51.194;6.614;2024-01-16T14:54:04;3.30;99.90
5278;DHT22;2662;51.194;6.614;2024-01-16T14:56:32;3.30;99.90
5278;DHT22;2662;51.194;6.614;2024-01-16T14:59:00;3.30;99.90
5278;DHT22;2662;51.194;6.614;2024-01-16T15:01:26;3.20;99.90
5278;DHT22;2662;51.194;6.614;2024-01-16T15:03:55;3.20;99.90
5278;DHT22;2662;51.194;6.614;2024-01-16T15:06:25;3.20;99.90
5278;DHT22;2662;51.194;6.614;2024-01-16T15:08:52;3.10;99.90
5278;DHT22;2662;51.194;6.614;2024-01-16T15:11:20;3.00;99.90
5278;DHT22;2662;51.194;6.614;2024-01-16T15:13:47;3.00;99.90
5278;DHT22;2662;51.194;6.614;2024-01-16T15:16:14;2.90;99.90
5278;DHT22;2662;51.194;6.614;2024-01-16T15:18:45;2.80;99.90
5278;DHT22;2662;51.194;6.614;2024-01-16T15:21:13;2.70;99.90
5278;DHT22;2662;51.194;6.614;2024-01-16T15:23:47;2.70;99.90
5278;DHT22;2662;51.194;6.614;2024-01-16T15:26:16;2.70;99.90
5278;DHT22;2662;51.194;6.614;2024-01-16T15:28:46;2.60;99.90
5278;DHT22;2662;51.194;6.614;2024-01-16T15:31:12;2.50;99.90
5278;DHT22;2662;51.194;6.614;2024-01-16T15:33:40;2.50;99.90
5278;DHT22;2662;51.194;6.614;2024-01-16T15:36:08;2.40;99.90
5278;DHT22;2662;51.194;6.614;2024-01-16T15:38:37;2.30;99.90
5278;DHT22;2662;51.194;6.614;2024-01-16T15:41:19;2.20;99.90
5278;DHT22;2662;51.194;6.614;2024-01-16T15:43:47;2.10;99.90
5278;DHT22;2662;51.194;6.614;2024-01-16T15:46:18;2.10;99.90
5278;DHT22;2662;51.194;6.614;2024-01-16T15:48:46;2.00;99.90
5278;DHT22;2662;51.194;6.614;2024-01-16T15:51:17;2.00;99.90
5278;DHT22;2662;51.194;6.614;2024-01-16T15:53:45;1.90;99.90
5278;DHT22;2662;51.194;6.614;2024-01-16T15:56:14;1.80;99.90
5278;DHT22;2662;51.194;6.614;2024-01-16T15:58:43;1.70;99.90
5278;DHT22;2662;51.194;6.614;2024-01-16T16:01:10;1.70;99.90
5278;DHT22;2662;51.194;6.614;2024-01-16T16:03:38;1.60;99.90
5278;DHT22;2662;51.194;6.614;2024-01-16T16:06:06;1.60;99.90
5278;DHT22;2662;51.194;6.614;2024-01-16T16:08:35;1.50;99.90
5278;DHT22;2662;51.194;6.614;2024-01-16T16:11:04;1.40;99.90
5278;DHT22;2662;51.194;6.614;2024-01-16T16:13:31;1.40;99.90
5278;DHT22;2662;51.194;6.614;2024-01-16T16:15:58;1.30;99.90
5278;DHT22;2662;51.194;6.614;2024-01-16T16:18:28;1.30;99.90
5278;DHT22;2662;51.194;6.614;2024-01-16T16:20:56;1.20;99.90
5278;DHT22;2662;51.194;6.614;2024-01-16T16:23:23;1.20;99.90
5278;DHT22;2662;51.194;6.614;2024-01-16T16:25:51;1.10;99.90
5278;DHT22;2662;51.194;6.614;2024-01-16T16:28:20;1.10;99.90
5278;DHT22;2662;51.194;6.614;2024-01-16T16:30:47;1.00;99.90
5278;DHT22;2662;51.194;6.614;2024-01-16T16:33:20;1.00;99.90
5278;DHT22;2662;51.194;6.614;2024-01-16T16:35:47;0.90;99.90
5278;DHT22;2662;51.194;6.614;2024-01-16T16:38:15;0.90;99.90
5278;DHT22;2662;51.194;6.614;2024-01-16T16:40:44;0.80;99.90